Alma, New York
Current Conditions -  °F | °C
As of 3:28 AM on Tuesday 27 Jan 2015 (Local Time) from KELZ Reporting Station
Overcast Overcast  
Wind Chill:   Ceiling: 2700
Heat Index: 11°   Visibility: 10mi
Dew Point:   Wind: 5mph
Humidity: 88%   Direction: 360°N
Pressure: 29.75"   Gusts: NA
Location:  42.01°N, 78.06°W
Report Text: KELZ 270828Z AUTO 36004KT 10SM BKN027 OVC042 M12/M13 A2975 RMK AO2 T11171133
Loading
Personal Weather Stations






























Interactive Weather Map New forecast layout! Learn more

10-Day Weather Forecast

Advertisements
Track Severe Weather on mobile